sensor_id;sensor_type;location;lat;lon;timestamp;P1;durP1;ratioP1;P2;durP2;ratioP2
76320;SDS011;65132;52.088;5.402;2023-04-01T00:01:30;11.68;;;5.15;;
76320;SDS011;65132;52.088;5.402;2023-04-01T00:03:56;20.88;;;7.57;;
76320;SDS011;65132;52.088;5.402;2023-04-01T00:06:23;15.73;;;5.60;;
76320;SDS011;65132;52.088;5.402;2023-04-01T00:08:51;18.30;;;6.80;;
76320;SDS011;65132;52.088;5.402;2023-04-01T00:11:18;19.40;;;6.18;;
76320;SDS011;65132;52.088;5.402;2023-04-01T00:13:45;14.43;;;5.57;;
76320;SDS011;65132;52.088;5.402;2023-04-01T00:16:14;18.95;;;7.55;;
76320;SDS011;65132;52.088;5.402;2023-04-01T00:18:44;15.95;;;5.78;;
76320;SDS011;65132;52.088;5.402;2023-04-01T00:21:14;19.48;;;6.93;;
76320;SDS011;65132;52.088;5.402;2023-04-01T00:23:44;14.73;;;5.43;;
76320;SDS011;65132;52.088;5.402;2023-04-01T00:26:14;18.05;;;6.32;;
76320;SDS011;65132;52.088;5.402;2023-04-01T00:28:40;21.13;;;6.25;;
76320;SDS011;65132;52.088;5.402;2023-04-01T00:31:07;19.70;;;6.63;;
76320;SDS011;65132;52.088;5.402;2023-04-01T00:33:40;17.88;;;6.13;;
76320;SDS011;65132;52.088;5.402;2023-04-01T00:36:10;19.95;;;6.60;;
76320;SDS011;65132;52.088;5.402;2023-04-01T00:38:41;22.08;;;7.93;;
76320;SDS011;65132;52.088;5.402;2023-04-01T00:41:08;16.95;;;7.00;;
76320;SDS011;65132;52.088;5.402;2023-04-01T00:43:39;19.88;;;7.65;;
76320;SDS011;65132;52.088;5.402;2023-04-01T00:46:07;21.20;;;7.03;;
76320;SDS011;65132;52.088;5.402;2023-04-01T00:48:34;25.80;;;8.75;;
76320;SDS011;65132;52.088;5.402;2023-04-01T00:53:36;18.42;;;6.07;;
76320;SDS011;65132;52.088;5.402;2023-04-01T00:56:10;23.58;;;7.28;;
76320;SDS011;65132;52.088;5.402;2023-04-01T00:58:42;18.45;;;6.25;;
76320;SDS011;65132;52.088;5.402;2023-04-01T01:01:12;26.55;;;8.50;;
76320;SDS011;65132;52.088;5.402;2023-04-01T01:03:41;20.85;;;7.85;;
76320;SDS011;65132;52.088;5.402;2023-04-01T01:06:14;15.82;;;6.10;;
76320;SDS011;65132;52.088;5.402;2023-04-01T01:09:09;24.20;;;8.38;;
76320;SDS011;65132;52.088;5.402;2023-04-01T01:20:20;22.25;;;7.72;;
76320;SDS011;65132;52.088;5.402;2023-04-01T01:31:15;13.95;;;5.35;;
76320;SDS011;65132;52.088;5.402;2023-04-01T01:33:55;16.52;;;6.53;;
76320;SDS011;65132;52.088;5.402;2023-04-01T01:36:31;17.73;;;7.40;;
76320;SDS011;65132;52.088;5.402;2023-04-01T01:39:03;21.70;;;5.95;;
76320;SDS011;65132;52.088;5.402;2023-04-01T01:41:34;17.60;;;6.75;;
76320;SDS011;65132;52.088;5.402;2023-04-01T01:44:02;11.20;;;4.25;;
76320;SDS011;65132;52.088;5.402;2023-04-01T01:46:34;13.75;;;5.30;;
76320;SDS011;65132;52.088;5.402;2023-04-01T01:49:09;17.27;;;5.13;;
76320;SDS011;65132;52.088;5.402;2023-04-01T01:51:40;9.25;;;3.88;;
76320;SDS011;65132;52.088;5.402;2023-04-01T01:54:13;9.15;;;2.90;;
76320;SDS011;65132;52.088;5.402;2023-04-01T01:56:44;6.85;;;3.05;;
76320;SDS011;65132;52.088;5.402;2023-04-01T02:01:42;8.60;;;2.90;;
76320;SDS011;65132;52.088;5.402;2023-04-01T02:04:14;7.75;;;2.58;;
76320;SDS011;65132;52.088;5.402;2023-04-01T02:06:50;9.40;;;3.40;;
76320;SDS011;65132;52.088;5.402;2023-04-01T02:09:22;6.95;;;3.35;;
76320;SDS011;65132;52.088;5.402;2023-04-01T02:11:50;9.18;;;2.97;;
76320;SDS011;65132;52.088;5.402;2023-04-01T02:14:37;11.27;;;3.97;;
76320;SDS011;65132;52.088;5.402;2023-04-01T02:17:23;7.93;;;2.20;;
76320;SDS011;65132;52.088;5.402;2023-04-01T02:19:57;6.30;;;3.25;;
76320;SDS011;65132;52.088;5.402;2023-04-01T02:22:34;8.70;;;3.45;;
76320;SDS011;65132;52.088;5.402;2023-04-01T02:25:09;6.10;;;2.28;;
76320;SDS011;65132;52.088;5.402;2023-04-01T02:27:42;6.75;;;2.58;;
76320;SDS011;65132;52.088;5.402;2023-04-01T02:30:12;8.77;;;3.22;;
76320;SDS011;65132;52.088;5.402;2023-04-01T02:32:40;8.18;;;3.13;;
76320;SDS011;65132;52.088;5.402;2023-04-01T02:35:14;9.05;;;4.05;;
76320;SDS011;65132;52.088;5.402;2023-04-01T02:37:44;7.97;;;3.60;;
76320;SDS011;65132;52.088;5.402;2023-04-01T02:40:12;11.57;;;3.90;;
76320;SDS011;65132;52.088;5.402;2023-04-01T02:42:40;9.43;;;4.60;;
76320;SDS011;65132;52.088;5.402;2023-04-01T02:45:11;10.75;;;3.78;;
76320;SDS011;65132;52.088;5.402;2023-04-01T02:47:40;6.90;;;2.42;;
76320;SDS011;65132;52.088;5.402;2023-04-01T02:50:07;9.65;;;3.72;;
76320;SDS011;65132;52.088;5.402;2023-04-01T02:52:35;8.32;;;3.30;;
76320;SDS011;65132;52.088;5.402;2023-04-01T02:55:01;7.93;;;3.67;;
76320;SDS011;65132;52.088;5.402;2023-04-01T02:57:33;10.30;;;3.75;;
76320;SDS011;65132;52.088;5.402;2023-04-01T02:59:59;9.30;;;3.88;;
76320;SDS011;65132;52.088;5.402;2023-04-01T03:02:26;6.63;;;2.90;;
76320;SDS011;65132;52.088;5.402;2023-04-01T03:04:52;10.65;;;4.57;;
76320;SDS011;65132;52.088;5.402;2023-04-01T03:07:18;8.80;;;4.00;;
76320;SDS011;65132;52.088;5.402;2023-04-01T03:09:45;6.55;;;3.75;;
76320;SDS011;65132;52.088;5.402;2023-04-01T03:12:13;10.27;;;3.70;;
76320;SDS011;65132;52.088;5.402;2023-04-01T03:14:43;10.30;;;3.47;;
76320;SDS011;65132;52.088;5.402;2023-04-01T03:17:17;6.43;;;2.38;;
76320;SDS011;65132;52.088;5.402;2023-04-01T03:19:43;7.88;;;2.67;;
76320;SDS011;65132;52.088;5.402;2023-04-01T03:22:10;7.63;;;2.83;;
76320;SDS011;65132;52.088;5.402;2023-04-01T03:24:37;9.40;;;2.83;;
76320;SDS011;65132;52.088;5.402;2023-04-01T03:27:06;9.20;;;2.75;;
76320;SDS011;65132;52.088;5.402;2023-04-01T03:29:35;9.23;;;2.92;;
76320;SDS011;65132;52.088;5.402;2023-04-01T03:32:04;9.57;;;3.30;;
76320;SDS011;65132;52.088;5.402;2023-04-01T03:34:31;8.32;;;3.38;;
76320;SDS011;65132;52.088;5.402;2023-04-01T03:36:57;8.07;;;3.30;;
76320;SDS011;65132;52.088;5.402;2023-04-01T03:39:24;9.40;;;3.13;;
76320;SDS011;65132;52.088;5.402;2023-04-01T03:41:53;5.50;;;2.30;;
76320;SDS011;65132;52.088;5.402;2023-04-01T03:44:22;7.72;;;3.05;;
76320;SDS011;65132;52.088;5.402;2023-04-01T03:46:49;8.73;;;3.25;;
76320;SDS011;65132;52.088;5.402;2023-04-01T03:49:15;7.65;;;2.92;;
76320;SDS011;65132;52.088;5.402;2023-04-01T03:51:44;7.28;;;2.78;;
76320;SDS011;65132;52.088;5.402;2023-04-01T03:54:12;7.22;;;2.92;;
76320;SDS011;65132;52.088;5.402;2023-04-01T03:56:44;7.30;;;2.63;;
76320;SDS011;65132;52.088;5.402;2023-04-01T03:59:21;9.13;;;3.03;;
76320;SDS011;65132;52.088;5.402;2023-04-01T04:01:50;6.25;;;2.75;;
76320;SDS011;65132;52.088;5.402;2023-04-01T04:04:17;5.82;;;2.78;;
76320;SDS011;65132;52.088;5.402;2023-04-01T04:06:47;9.23;;;3.38;;
76320;SDS011;65132;52.088;5.402;2023-04-01T04:09:13;6.57;;;2.80;;
76320;SDS011;65132;52.088;5.402;2023-04-01T04:11:39;8.85;;;2.92;;
76320;SDS011;65132;52.088;5.402;2023-04-01T04:14:15;6.72;;;2.20;;
76320;SDS011;65132;52.088;5.402;2023-04-01T04:16:42;7.93;;;2.83;;
76320;SDS011;65132;52.088;5.402;2023-04-01T04:19:09;6.75;;;2.78;;
76320;SDS011;65132;52.088;5.402;2023-04-01T04:21:35;7.13;;;3.05;;
76320;SDS011;65132;52.088;5.402;2023-04-01T04:24:02;8.10;;;2.30;;
76320;SDS011;65132;52.088;5.402;2023-04-01T04:26:29;8.32;;;2.75;;
76320;SDS011;65132;52.088;5.402;2023-04-01T04:28:59;6.50;;;2.33;;
76320;SDS011;65132;52.088;5.402;2023-04-01T04:31:26;6.20;;;2.42;;
76320;SDS011;65132;52.088;5.402;2023-04-01T04:33:53;5.93;;;2.13;;
76320;SDS011;65132;52.088;5.402;2023-04-01T04:36:20;6.53;;;2.67;;
76320;SDS011;65132;52.088;5.402;2023-04-01T04:38:47;6.32;;;2.75;;
76320;SDS011;65132;52.088;5.402;2023-04-01T04:41:15;8.20;;;3.42;;
76320;SDS011;65132;52.088;5.402;2023-04-01T04:43:48;8.25;;;3.13;;
76320;SDS011;65132;52.088;5.402;2023-04-01T04:46:16;8.63;;;2.78;;
76320;SDS011;65132;52.088;5.402;2023-04-01T04:48:46;8.35;;;3.03;;
76320;SDS011;65132;52.088;5.402;2023-04-01T04:51:16;7.88;;;3.10;;
76320;SDS011;65132;52.088;5.402;2023-04-01T04:53:45;10.07;;;3.42;;
76320;SDS011;65132;52.088;5.402;2023-04-01T04:56:12;10.00;;;3.03;;
76320;SDS011;65132;52.088;5.402;2023-04-01T04:58:45;8.60;;;3.10;;
76320;SDS011;65132;52.088;5.402;2023-04-01T05:01:17;8.02;;;2.70;;
76320;SDS011;65132;52.088;5.402;2023-04-01T05:03:45;6.93;;;2.13;;
76320;SDS011;65132;52.088;5.402;2023-04-01T05:06:13;3.65;;;1.45;;
76320;SDS011;65132;52.088;5.402;2023-04-01T05:08:41;4.60;;;1.98;;
76320;SDS011;65132;52.088;5.402;2023-04-01T05:11:11;4.35;;;1.42;;
76320;SDS011;65132;52.088;5.402;2023-04-01T05:13:40;5.30;;;1.60;;
76320;SDS011;65132;52.088;5.402;2023-04-01T05:16:08;4.85;;;1.45;;
76320;SDS011;65132;52.088;5.402;2023-04-01T05:18:39;4.55;;;1.95;;
76320;SDS011;65132;52.088;5.402;2023-04-01T05:21:07;6.88;;;1.65;;
76320;SDS011;65132;52.088;5.402;2023-04-01T05:23:37;6.18;;;1.80;;
76320;SDS011;65132;52.088;5.402;2023-04-01T05:26:11;5.20;;;1.95;;
76320;SDS011;65132;52.088;5.402;2023-04-01T05:28:38;8.57;;;2.13;;
76320;SDS011;65132;52.088;5.402;2023-04-01T05:31:05;6.75;;;2.40;;
76320;SDS011;65132;52.088;5.402;2023-04-01T05:33:35;7.05;;;2.25;;
76320;SDS011;65132;52.088;5.402;2023-04-01T05:36:21;9.07;;;2.72;;
76320;SDS011;65132;52.088;5.402;2023-04-01T05:38:48;6.93;;;2.13;;
76320;SDS011;65132;52.088;5.402;2023-04-01T05:41:18;7.15;;;2.20;;
76320;SDS011;65132;52.088;5.402;2023-04-01T05:43:47;7.30;;;2.30;;
76320;SDS011;65132;52.088;5.402;2023-04-01T05:46:13;7.10;;;2.53;;
76320;SDS011;65132;52.088;5.402;2023-04-01T05:48:42;8.75;;;2.33;;
76320;SDS011;65132;52.088;5.402;2023-04-01T05:51:14;6.32;;;2.03;;
76320;SDS011;65132;52.088;5.402;2023-04-01T05:53:41;6.38;;;1.98;;
76320;SDS011;65132;52.088;5.402;2023-04-01T05:56:09;7.82;;;1.85;;
76320;SDS011;65132;52.088;5.402;2023-04-01T05:58:38;5.72;;;1.88;;
76320;SDS011;65132;52.088;5.402;2023-04-01T06:01:06;6.25;;;2.10;;
76320;SDS011;65132;52.088;5.402;2023-04-01T06:03:39;5.65;;;2.30;;
76320;SDS011;65132;52.088;5.402;2023-04-01T06:06:09;6.40;;;1.70;;
76320;SDS011;65132;52.088;5.402;2023-04-01T06:08:42;5.78;;;1.70;;
76320;SDS011;65132;52.088;5.402;2023-04-01T06:11:32;6.18;;;2.15;;
76320;SDS011;65132;52.088;5.402;2023-04-01T06:34:08;4.50;;;1.48;;
76320;SDS011;65132;52.088;5.402;2023-04-01T06:36:53;4.07;;;1.17;;
76320;SDS011;65132;52.088;5.402;2023-04-01T06:42:28;6.07;;;2.30;;
76320;SDS011;65132;52.088;5.402;2023-04-01T06:53:06;4.20;;;1.30;;
76320;SDS011;65132;52.088;5.402;2023-04-01T06:55:44;4.07;;;1.40;;
76320;SDS011;65132;52.088;5.402;2023-04-01T06:58:24;3.78;;;1.23;;
76320;SDS011;65132;52.088;5.402;2023-04-01T07:01:00;3.90;;;1.02;;
76320;SDS011;65132;52.088;5.402;2023-04-01T07:03:36;3.53;;;1.30;;
76320;SDS011;65132;52.088;5.402;2023-04-01T07:08:50;3.80;;;1.25;;
76320;SDS011;65132;52.088;5.402;2023-04-01T07:11:24;3.97;;;1.23;;
76320;SDS011;65132;52.088;5.402;2023-04-01T07:13:58;3.90;;;0.93;;
76320;SDS011;65132;52.088;5.402;2023-04-01T07:16:29;5.35;;;1.55;;
76320;SDS011;65132;52.088;5.402;2023-04-01T07:19:02;3.42;;;1.13;;
76320;SDS011;65132;52.088;5.402;2023-04-01T07:21:41;6.70;;;2.15;;
76320;SDS011;65132;52.088;5.402;2023-04-01T07:24:24;6.90;;;2.13;;
76320;SDS011;65132;52.088;5.402;2023-04-01T07:26:54;7.47;;;2.17;;
76320;SDS011;65132;52.088;5.402;2023-04-01T07:29:23;7.43;;;2.60;;
76320;SDS011;65132;52.088;5.402;2023-04-01T07:35:00;7.30;;;2.00;;
76320;SDS011;65132;52.088;5.402;2023-04-01T07:47:43;4.05;;;1.50;;
76320;SDS011;65132;52.088;5.402;2023-04-01T07:50:31;3.83;;;1.25;;
76320;SDS011;65132;52.088;5.402;2023-04-01T07:58:59;4.60;;;1.35;;
76320;SDS011;65132;52.088;5.402;2023-04-01T08:01:48;4.38;;;1.45;;
76320;SDS011;65132;52.088;5.402;2023-04-01T08:04:25;6.05;;;1.83;;
76320;SDS011;65132;52.088;5.402;2023-04-01T08:07:07;6.40;;;1.73;;
76320;SDS011;65132;52.088;5.402;2023-04-01T08:09:47;5.05;;;1.80;;
76320;SDS011;65132;52.088;5.402;2023-04-01T08:14:50;7.25;;;2.70;;
76320;SDS011;65132;52.088;5.402;2023-04-01T08:25:40;6.80;;;1.35;;
76320;SDS011;65132;52.088;5.402;2023-04-01T08:28:22;6.32;;;1.70;;
76320;SDS011;65132;52.088;5.402;2023-04-01T08:31:00;6.82;;;2.00;;
76320;SDS011;65132;52.088;5.402;2023-04-01T08:33:37;6.70;;;2.10;;
76320;SDS011;65132;52.088;5.402;2023-04-01T08:36:21;6.80;;;2.22;;
76320;SDS011;65132;52.088;5.402;2023-04-01T08:38:56;7.97;;;2.55;;
76320;SDS011;65132;52.088;5.402;2023-04-01T08:44:39;5.95;;;2.28;;
76320;SDS011;65132;52.088;5.402;2023-04-01T08:56:00;5.68;;;1.95;;
76320;SDS011;65132;52.088;5.402;2023-04-01T08:58:37;5.65;;;2.17;;
76320;SDS011;65132;52.088;5.402;2023-04-01T09:04:14;7.50;;;2.30;;
76320;SDS011;65132;52.088;5.402;2023-04-01T09:24:04;6.60;;;2.85;;
76320;SDS011;65132;52.088;5.402;2023-04-01T09:29:54;6.78;;;2.40;;
76320;SDS011;65132;52.088;5.402;2023-04-01T09:35:39;5.20;;;1.83;;
76320;SDS011;65132;52.088;5.402;2023-04-01T09:49:33;4.72;;;1.67;;
76320;SDS011;65132;52.088;5.402;2023-04-01T09:52:51;4.22;;;1.33;;
76320;SDS011;65132;52.088;5.402;2023-04-01T10:00:18;5.43;;;1.40;;
76320;SDS011;65132;52.088;5.402;2023-04-01T10:15:31;7.03;;;2.35;;
76320;SDS011;65132;52.088;5.402;2023-04-01T10:44:04;5.82;;;2.45;;
76320;SDS011;65132;52.088;5.402;2023-04-01T10:58:39;4.97;;;2.20;;
76320;SDS011;65132;52.088;5.402;2023-04-01T11:04:37;5.63;;;2.20;;
76320;SDS011;65132;52.088;5.402;2023-04-01T11:44:18;3.20;;;1.33;;
76320;SDS011;65132;52.088;5.402;2023-04-01T11:50:00;2.92;;;1.35;;
76320;SDS011;65132;52.088;5.402;2023-04-01T11:53:04;3.22;;;1.00;;
76320;SDS011;65132;52.088;5.402;2023-04-01T11:55:51;2.85;;;0.90;;
76320;SDS011;65132;52.088;5.402;2023-04-01T11:58:47;2.53;;;0.98;;
76320;SDS011;65132;52.088;5.402;2023-04-01T12:01:36;5.35;;;1.70;;
76320;SDS011;65132;52.088;5.402;2023-04-01T12:04:42;6.15;;;1.35;;
76320;SDS011;65132;52.088;5.402;2023-04-01T12:10:44;3.45;;;1.00;;
76320;SDS011;65132;52.088;5.402;2023-04-01T12:13:29;3.83;;;0.93;;
76320;SDS011;65132;52.088;5.402;2023-04-01T12:16:18;3.28;;;0.90;;
76320;SDS011;65132;52.088;5.402;2023-04-01T12:21:57;3.35;;;1.50;;
76320;SDS011;65132;52.088;5.402;2023-04-01T12:27:31;4.38;;;1.75;;
76320;SDS011;65132;52.088;5.402;2023-04-01T12:32:53;4.72;;;2.40;;
76320;SDS011;65132;52.088;5.402;2023-04-01T12:35:45;5.93;;;2.28;;
76320;SDS011;65132;52.088;5.402;2023-04-01T12:38:26;6.55;;;2.47;;
76320;SDS011;65132;52.088;5.402;2023-04-01T12:41:07;5.88;;;2.42;;
76320;SDS011;65132;52.088;5.402;2023-04-01T12:43:49;6.50;;;2.60;;
76320;SDS011;65132;52.088;5.402;2023-04-01T12:52:03;9.30;;;3.92;;
76320;SDS011;65132;52.088;5.402;2023-04-01T12:57:29;9.57;;;3.78;;
76320;SDS011;65132;52.088;5.402;2023-04-01T13:02:50;12.68;;;4.43;;
76320;SDS011;65132;52.088;5.402;2023-04-01T13:05:58;10.38;;;3.72;;
76320;SDS011;65132;52.088;5.402;2023-04-01T13:08:58;8.85;;;3.78;;
76320;SDS011;65132;52.088;5.402;2023-04-01T13:14:24;13.70;;;4.90;;
76320;SDS011;65132;52.088;5.402;2023-04-01T13:16:58;9.13;;;4.07;;
76320;SDS011;65132;52.088;5.402;2023-04-01T13:19:53;8.23;;;3.40;;
76320;SDS011;65132;52.088;5.402;2023-04-01T13:22:52;9.75;;;3.58;;
76320;SDS011;65132;52.088;5.402;2023-04-01T13:25:32;8.90;;;3.90;;
76320;SDS011;65132;52.088;5.402;2023-04-01T13:30:51;7.78;;;3.67;;
76320;SDS011;65132;52.088;5.402;2023-04-01T13:34:12;7.68;;;2.60;;
76320;SDS011;65132;52.088;5.402;2023-04-01T13:42:22;5.45;;;2.15;;
76320;SDS011;65132;52.088;5.402;2023-04-01T13:44:56;5.38;;;2.17;;
76320;SDS011;65132;52.088;5.402;2023-04-01T13:55:44;4.05;;;1.92;;
76320;SDS011;65132;52.088;5.402;2023-04-01T13:58:20;5.05;;;1.85;;
76320;SDS011;65132;52.088;5.402;2023-04-01T14:04:16;4.40;;;1.10;;
76320;SDS011;65132;52.088;5.402;2023-04-01T14:09:36;3.38;;;1.00;;
76320;SDS011;65132;52.088;5.402;2023-04-01T14:17:50;4.55;;;1.35;;
76320;SDS011;65132;52.088;5.402;2023-04-01T14:20:41;5.72;;;2.42;;
76320;SDS011;65132;52.088;5.402;2023-04-01T14:26:33;6.82;;;3.03;;
76320;SDS011;65132;52.088;5.402;2023-04-01T14:29:36;6.55;;;2.85;;
76320;SDS011;65132;52.088;5.402;2023-04-01T14:32:38;6.32;;;2.70;;
76320;SDS011;65132;52.088;5.402;2023-04-01T14:37:58;6.55;;;2.90;;
76320;SDS011;65132;52.088;5.402;2023-04-01T14:50:01;6.30;;;2.72;;
76320;SDS011;65132;52.088;5.402;2023-04-01T14:52:36;6.15;;;3.03;;
76320;SDS011;65132;52.088;5.402;2023-04-01T15:03:17;7.80;;;3.72;;
76320;SDS011;65132;52.088;5.402;2023-04-01T15:09:12;6.05;;;2.58;;
76320;SDS011;65132;52.088;5.402;2023-04-01T15:14:56;11.63;;;5.88;;
76320;SDS011;65132;52.088;5.402;2023-04-01T15:20:18;13.10;;;5.57;;
76320;SDS011;65132;52.088;5.402;2023-04-01T15:23:10;12.98;;;7.20;;
76320;SDS011;65132;52.088;5.402;2023-04-01T15:26:20;9.60;;;4.90;;
76320;SDS011;65132;52.088;5.402;2023-04-01T15:28:49;7.32;;;3.65;;
76320;SDS011;65132;52.088;5.402;2023-04-01T15:34:46;8.20;;;2.90;;
76320;SDS011;65132;52.088;5.402;2023-04-01T15:45:39;5.60;;;2.22;;
76320;SDS011;65132;52.088;5.402;2023-04-01T15:51:06;7.72;;;2.88;;
76320;SDS011;65132;52.088;5.402;2023-04-01T15:53:49;6.80;;;1.85;;
76320;SDS011;65132;52.088;5.402;2023-04-01T15:56:36;5.95;;;2.20;;
76320;SDS011;65132;52.088;5.402;2023-04-01T15:59:47;5.13;;;2.17;;
76320;SDS011;65132;52.088;5.402;2023-04-01T16:10:44;5.03;;;1.98;;
76320;SDS011;65132;52.088;5.402;2023-04-01T16:22:04;5.07;;;2.17;;
76320;SDS011;65132;52.088;5.402;2023-04-01T16:24:46;5.90;;;2.60;;
76320;SDS011;65132;52.088;5.402;2023-04-01T16:29:48;3.70;;;2.33;;
76320;SDS011;65132;52.088;5.402;2023-04-01T16:32:31;5.20;;;2.40;;
76320;SDS011;65132;52.088;5.402;2023-04-01T16:35:10;4.60;;;1.83;;
76320;SDS011;65132;52.088;5.402;2023-04-01T16:41:24;4.75;;;2.42;;
76320;SDS011;65132;52.088;5.402;2023-04-01T16:44:19;4.40;;;2.17;;
76320;SDS011;65132;52.088;5.402;2023-04-01T16:46:50;4.38;;;2.35;;
76320;SDS011;65132;52.088;5.402;2023-04-01T16:49:37;6.38;;;2.92;;
76320;SDS011;65132;52.088;5.402;2023-04-01T16:58:06;7.03;;;2.80;;
76320;SDS011;65132;52.088;5.402;2023-04-01T17:00:22;5.35;;;2.70;;
76320;SDS011;65132;52.088;5.402;2023-04-01T17:05:39;6.93;;;2.85;;
76320;SDS011;65132;52.088;5.402;2023-04-01T17:08:33;6.45;;;3.20;;
76320;SDS011;65132;52.088;5.402;2023-04-01T17:17:20;7.47;;;3.08;;
76320;SDS011;65132;52.088;5.402;2023-04-01T17:31:26;5.95;;;2.45;;
76320;SDS011;65132;52.088;5.402;2023-04-01T17:34:18;4.93;;;2.60;;
76320;SDS011;65132;52.088;5.402;2023-04-01T17:37:22;5.80;;;2.58;;
76320;SDS011;65132;52.088;5.402;2023-04-01T17:48:24;5.03;;;2.88;;
76320;SDS011;65132;52.088;5.402;2023-04-01T17:56:59;4.85;;;2.47;;
76320;SDS011;65132;52.088;5.402;2023-04-01T17:59:35;5.43;;;3.22;;
76320;SDS011;65132;52.088;5.402;2023-04-01T18:02:11;5.53;;;2.58;;
76320;SDS011;65132;52.088;5.402;2023-04-01T18:07:44;6.03;;;3.13;;
76320;SDS011;65132;52.088;5.402;2023-04-01T18:10:28;5.18;;;2.55;;
76320;SDS011;65132;52.088;5.402;2023-04-01T18:25:01;5.20;;;2.55;;
76320;SDS011;65132;52.088;5.402;2023-04-01T18:28:08;5.22;;;2.78;;
76320;SDS011;65132;52.088;5.402;2023-04-01T18:31:15;6.03;;;2.63;;
76320;SDS011;65132;52.088;5.402;2023-04-01T18:42:16;5.68;;;3.03;;
76320;SDS011;65132;52.088;5.402;2023-04-01T18:45:02;5.28;;;2.92;;
76320;SDS011;65132;52.088;5.402;2023-04-01T18:52:47;6.85;;;3.45;;
76320;SDS011;65132;52.088;5.402;2023-04-01T18:55:41;7.72;;;4.07;;
76320;SDS011;65132;52.088;5.402;2023-04-01T18:58:28;5.63;;;2.80;;
76320;SDS011;65132;52.088;5.402;2023-04-01T19:01:12;6.68;;;3.70;;
76320;SDS011;65132;52.088;5.402;2023-04-01T19:03:53;7.93;;;3.85;;
76320;SDS011;65132;52.088;5.402;2023-04-01T19:06:30;7.93;;;4.15;;
76320;SDS011;65132;52.088;5.402;2023-04-01T19:09:11;6.57;;;3.80;;
76320;SDS011;65132;52.088;5.402;2023-04-01T19:17:08;6.78;;;3.88;;
76320;SDS011;65132;52.088;5.402;2023-04-01T19:19:48;6.78;;;3.67;;
76320;SDS011;65132;52.088;5.402;2023-04-01T19:30:57;5.50;;;2.53;;
76320;SDS011;65132;52.088;5.402;2023-04-01T19:33:32;5.43;;;2.55;;
76320;SDS011;65132;52.088;5.402;2023-04-01T19:36:11;6.05;;;2.88;;
76320;SDS011;65132;52.088;5.402;2023-04-01T19:38:58;5.13;;;2.33;;
76320;SDS011;65132;52.088;5.402;2023-04-01T19:41:46;6.05;;;3.25;;
76320;SDS011;65132;52.088;5.402;2023-04-01T19:52:42;6.68;;;3.60;;
76320;SDS011;65132;52.088;5.402;2023-04-01T19:55:24;6.07;;;3.03;;
76320;SDS011;65132;52.088;5.402;2023-04-01T20:00:55;5.75;;;2.92;;
76320;SDS011;65132;52.088;5.402;2023-04-01T20:11:58;6.80;;;3.90;;
76320;SDS011;65132;52.088;5.402;2023-04-01T20:14:44;7.80;;;4.47;;
76320;SDS011;65132;52.088;5.402;2023-04-01T20:17:18;8.35;;;4.30;;
76320;SDS011;65132;52.088;5.402;2023-04-01T20:31:20;10.93;;;4.45;;
76320;SDS011;65132;52.088;5.402;2023-04-01T20:44:58;10.50;;;4.28;;
76320;SDS011;65132;52.088;5.402;2023-04-01T20:53:15;9.55;;;5.18;;
76320;SDS011;65132;52.088;5.402;2023-04-01T20:58:24;9.85;;;4.90;;
76320;SDS011;65132;52.088;5.402;2023-04-01T21:04:12;8.43;;;4.30;;
76320;SDS011;65132;52.088;5.402;2023-04-01T21:09:53;9.95;;;4.55;;
76320;SDS011;65132;52.088;5.402;2023-04-01T21:12:43;9.82;;;4.70;;
76320;SDS011;65132;52.088;5.402;2023-04-01T21:21:03;8.38;;;3.83;;
76320;SDS011;65132;52.088;5.402;2023-04-01T21:29:25;12.30;;;4.65;;
76320;SDS011;65132;52.088;5.402;2023-04-01T21:43:57;9.40;;;4.28;;
76320;SDS011;65132;52.088;5.402;2023-04-01T21:46:50;6.60;;;3.00;;
76320;SDS011;65132;52.088;5.402;2023-04-01T22:02:02;9.52;;;4.13;;
76320;SDS011;65132;52.088;5.402;2023-04-01T22:05:09;7.05;;;3.70;;
76320;SDS011;65132;52.088;5.402;2023-04-01T22:07:58;7.25;;;4.05;;
76320;SDS011;65132;52.088;5.402;2023-04-01T22:10:51;8.38;;;3.95;;
76320;SDS011;65132;52.088;5.402;2023-04-01T22:19:02;10.02;;;3.95;;
76320;SDS011;65132;52.088;5.402;2023-04-01T22:21:47;8.85;;;3.72;;
76320;SDS011;65132;52.088;5.402;2023-04-01T22:24:24;6.68;;;3.80;;
76320;SDS011;65132;52.088;5.402;2023-04-01T22:27:21;9.18;;;3.95;;
76320;SDS011;65132;52.088;5.402;2023-04-01T22:29:59;7.00;;;3.75;;
76320;SDS011;65132;52.088;5.402;2023-04-01T22:32:45;7.55;;;3.65;;
76320;SDS011;65132;52.088;5.402;2023-04-01T22:35:40;6.63;;;3.55;;
76320;SDS011;65132;52.088;5.402;2023-04-01T22:38:14;7.82;;;3.58;;
76320;SDS011;65132;52.088;5.402;2023-04-01T22:41:05;8.85;;;5.13;;
76320;SDS011;65132;52.088;5.402;2023-04-01T22:46:06;10.10;;;5.13;;
76320;SDS011;65132;52.088;5.402;2023-04-01T22:49:07;7.32;;;4.45;;
76320;SDS011;65132;52.088;5.402;2023-04-01T22:51:42;7.80;;;3.78;;
76320;SDS011;65132;52.088;5.402;2023-04-01T22:57:28;9.20;;;5.03;;
76320;SDS011;65132;52.088;5.402;2023-04-01T22:59:46;8.60;;;3.88;;
76320;SDS011;65132;52.088;5.402;2023-04-01T23:02:23;8.82;;;4.22;;
76320;SDS011;65132;52.088;5.402;2023-04-01T23:10:15;10.75;;;4.80;;
76320;SDS011;65132;52.088;5.402;2023-04-01T23:12:46;10.00;;;5.28;;
76320;SDS011;65132;52.088;5.402;2023-04-01T23:15:15;14.13;;;5.55;;
76320;SDS011;65132;52.088;5.402;2023-04-01T23:17:56;9.95;;;5.80;;
76320;SDS011;65132;52.088;5.402;2023-04-01T23:20:47;11.55;;;4.90;;
76320;SDS011;65132;52.088;5.402;2023-04-01T23:23:26;10.98;;;5.57;;
76320;SDS011;65132;52.088;5.402;2023-04-01T23:29:04;14.65;;;5.57;;
76320;SDS011;65132;52.088;5.402;2023-04-01T23:31:41;12.77;;;5.90;;
76320;SDS011;65132;52.088;5.402;2023-04-01T23:36:39;13.43;;;5.85;;
76320;SDS011;65132;52.088;5.402;2023-04-01T23:39:22;12.57;;;6.15;;
76320;SDS011;65132;52.088;5.402;2023-04-01T23:41:50;12.23;;;5.40;;
76320;SDS011;65132;52.088;5.402;2023-04-01T23:44:22;11.15;;;5.45;;
76320;SDS011;65132;52.088;5.402;2023-04-01T23:46:51;15.23;;;6.00;;
76320;SDS011;65132;52.088;5.402;2023-04-01T23:49:27;14.70;;;5.82;;
76320;SDS011;65132;52.088;5.402;2023-04-01T23:51:58;12.75;;;4.97;;
76320;SDS011;65132;52.088;5.402;2023-04-01T23:54:46;12.10;;;6.28;;
76320;SDS011;65132;52.088;5.402;2023-04-01T23:57:23;12.93;;;6.72;;
